createdAt,value
2022-12-26T00:01:27.616Z,100.97
2022-12-26T00:03:57.083Z,105.25
2022-12-26T00:06:27.444Z,112.60
2022-12-26T00:08:55.885Z,115.97
2022-12-26T00:11:24.665Z,123.43
2022-12-26T00:13:57.086Z,138.90
2022-12-26T00:16:26.436Z,117.10
2022-12-26T00:18:54.500Z,170.07
2022-12-26T00:21:23.949Z,153.60
2022-12-26T00:23:51.174Z,131.52
2022-12-26T00:26:21.711Z,108.38
2022-12-26T00:28:49.573Z,117.00
2022-12-26T00:31:26.435Z,132.48
2022-12-26T00:33:53.845Z,121.10
2022-12-26T00:36:28.256Z,196.02
2022-12-26T00:38:57.179Z,86.45
2022-12-26T00:41:24.908Z,128.25
2022-12-26T00:43:52.141Z,149.25
2022-12-26T00:46:22.275Z,126.65
2022-12-26T00:48:49.774Z,145.35
2022-12-26T00:51:20.242Z,207.23
2022-12-26T00:53:47.442Z,151.43
2022-12-26T00:56:15.774Z,139.40
2022-12-26T00:58:45.704Z,109.85
2022-12-26T01:01:21.613Z,88.55
2022-12-26T01:03:50.174Z,134.02
2022-12-26T01:06:18.501Z,95.75
2022-12-26T01:08:45.622Z,109.13
2022-12-26T01:11:36.998Z,92.13
2022-12-26T01:14:04.542Z,128.98
2022-12-26T01:16:31.975Z,120.32
2022-12-26T01:18:59.132Z,112.45
2022-12-26T01:21:28.887Z,112.22
2022-12-26T01:23:56.293Z,100.53
2022-12-26T01:26:23.753Z,172.25
2022-12-26T01:28:52.255Z,127.90
2022-12-26T01:31:20.937Z,98.45
2022-12-26T01:33:48.199Z,131.98
2022-12-26T01:36:17.017Z,107.05
2022-12-26T01:38:46.513Z,80.38
2022-12-26T01:41:17.353Z,139.45
2022-12-26T01:43:57.027Z,174.55
2022-12-26T01:46:30.803Z,229.45
2022-12-26T01:49:02.338Z,178.15
2022-12-26T01:51:33.595Z,186.65
2022-12-26T01:54:39.304Z,108.32
2022-12-26T01:56:54.049Z,137.55
2022-12-26T01:59:26.203Z,83.60
2022-12-26T02:01:55.419Z,173.38
2022-12-26T02:04:48.016Z,152.18
2022-12-26T02:07:20.305Z,152.25
2022-12-26T02:09:47.495Z,101.13
2022-12-26T02:12:35.673Z,107.00
2022-12-26T02:15:10.600Z,97.40
2022-12-26T02:17:39.305Z,108.53
2022-12-26T02:20:29.121Z,104.97
2022-12-26T02:23:08.648Z,94.95
2022-12-26T02:25:54.400Z,135.55
2022-12-26T02:28:40.292Z,96.97
2022-12-26T02:31:25.528Z,273.00
2022-12-26T02:33:52.893Z,99.88
2022-12-26T02:36:36.961Z,98.55
2022-12-26T02:39:44.614Z,125.13
2022-12-26T02:42:55.461Z,120.35
2022-12-26T02:45:47.645Z,74.40
2022-12-26T02:48:39.316Z,78.63
2022-12-26T02:51:50.193Z,107.20
2022-12-26T02:55:01.102Z,87.50
2022-12-26T02:57:56.241Z,151.68
2022-12-26T03:00:42.000Z,61.35
2022-12-26T03:06:19.540Z,62.10
2022-12-26T03:09:11.032Z,90.88
2022-12-26T03:12:00.223Z,78.13
2022-12-26T03:14:37.095Z,67.55
2022-12-26T03:17:21.697Z,77.40
2022-12-26T03:20:00.804Z,67.55
2022-12-26T03:22:49.433Z,116.80
2022-12-26T03:25:42.180Z,61.53
2022-12-26T03:28:09.930Z,67.07
2022-12-26T03:30:50.824Z,74.20
2022-12-26T03:33:49.919Z,86.30
2022-12-26T03:36:36.714Z,68.88
2022-12-26T03:42:25.788Z,133.80
2022-12-26T03:45:44.691Z,131.15
2022-12-26T03:48:54.566Z,89.95
2022-12-26T03:54:35.082Z,90.03
2022-12-26T03:57:28.334Z,80.50
2022-12-26T04:00:27.025Z,77.68
2022-12-26T04:03:17.881Z,77.95
2022-12-26T04:06:06.913Z,87.63
2022-12-26T04:09:14.479Z,79.35
2022-12-26T04:12:05.391Z,79.45
2022-12-26T04:15:11.185Z,123.18
2022-12-26T04:18:19.830Z,206.93
2022-12-26T04:21:39.986Z,164.07
2022-12-26T04:24:35.694Z,244.07
2022-12-26T04:27:26.543Z,217.98
2022-12-26T04:30:12.833Z,99.70
2022-12-26T04:33:07.828Z,103.78
2022-12-26T04:36:11.299Z,84.57
2022-12-26T04:39:04.187Z,82.05
2022-12-26T04:41:53.247Z,117.30
2022-12-26T04:44:24.672Z,69.50
2022-12-26T04:46:54.170Z,82.82
2022-12-26T04:49:40.139Z,76.18
2022-12-26T04:52:11.348Z,81.88
2022-12-26T04:54:38.529Z,81.82
2022-12-26T04:57:07.091Z,77.55
2022-12-26T04:59:34.254Z,70.65
2022-12-26T05:02:20.352Z,69.97
2022-12-26T05:05:06.026Z,68.05
2022-12-26T05:07:55.781Z,61.60
2022-12-26T05:10:27.832Z,63.78
2022-12-26T05:12:55.386Z,64.95
2022-12-26T05:15:22.652Z,87.60
2022-12-26T05:18:09.191Z,66.88
2022-12-26T05:23:43.568Z,57.40
2022-12-26T05:26:42.054Z,93.43
2022-12-26T05:29:09.745Z,150.02
2022-12-26T05:31:37.493Z,62.80
2022-12-26T05:34:10.711Z,64.05
2022-12-26T05:36:41.581Z,75.78
2022-12-26T05:39:09.986Z,111.20
2022-12-26T05:41:38.030Z,80.80
2022-12-26T05:44:06.710Z,89.97
2022-12-26T05:46:34.745Z,75.55
2022-12-26T05:49:02.711Z,68.50
2022-12-26T05:51:29.751Z,93.07
2022-12-26T05:53:57.113Z,84.80
2022-12-26T05:56:24.312Z,67.63
2022-12-26T05:58:59.345Z,73.22
2022-12-26T06:01:28.218Z,66.25
2022-12-26T06:03:58.708Z,125.65
2022-12-26T06:06:26.794Z,85.05
2022-12-26T06:08:57.461Z,262.02
2022-12-26T06:11:26.841Z,113.00
2022-12-26T06:13:57.599Z,73.28
2022-12-26T06:16:24.754Z,77.43
2022-12-26T06:18:52.213Z,71.57
2022-12-26T06:21:20.468Z,78.75
2022-12-26T06:23:48.783Z,189.02
2022-12-26T06:26:17.364Z,90.18
2022-12-26T06:28:45.181Z,128.85
2022-12-26T06:31:21.686Z,110.88
2022-12-26T06:33:51.585Z,91.90
2022-12-26T06:36:25.159Z,91.15
2022-12-26T06:38:53.863Z,150.68
2022-12-26T06:41:23.564Z,95.38
2022-12-26T06:43:52.061Z,82.22
2022-12-26T06:46:21.721Z,123.35
2022-12-26T06:48:49.241Z,91.13
2022-12-26T06:51:21.393Z,80.00
2022-12-26T06:53:50.797Z,114.03
2022-12-26T06:56:26.261Z,114.97
2022-12-26T06:59:06.719Z,129.05
2022-12-26T07:01:35.172Z,106.78
2022-12-26T07:04:04.389Z,109.35
2022-12-26T07:06:37.200Z,107.68
2022-12-26T07:09:13.184Z,109.70
2022-12-26T07:11:42.749Z,88.45
2022-12-26T07:14:10.337Z,92.40
2022-12-26T07:16:39.314Z,83.82
2022-12-26T07:19:14.072Z,78.45
2022-12-26T07:21:41.782Z,121.47
2022-12-26T07:24:17.874Z,87.13
2022-12-26T07:29:14.258Z,145.00
2022-12-26T07:31:44.733Z,114.93
2022-12-26T07:34:12.515Z,86.65
2022-12-26T07:36:41.456Z,108.82
2022-12-26T07:39:09.078Z,104.13
2022-12-26T07:41:54.778Z,91.80
2022-12-26T07:44:22.158Z,111.07
2022-12-26T07:46:49.304Z,92.30
2022-12-26T07:49:17.474Z,67.85
2022-12-26T07:51:44.936Z,80.32
2022-12-26T07:54:12.905Z,72.63
2022-12-26T07:56:40.549Z,68.40
2022-12-26T07:59:12.536Z,62.95
2022-12-26T08:01:39.789Z,58.90
2022-12-26T08:04:07.393Z,64.22
2022-12-26T08:06:34.574Z,65.53
2022-12-26T08:09:04.615Z,61.70
2022-12-26T08:11:35.810Z,68.90
2022-12-26T08:14:03.507Z,68.70
2022-12-26T08:16:31.550Z,69.63
2022-12-26T08:18:59.394Z,78.88
2022-12-26T08:21:26.489Z,72.22
2022-12-26T08:23:53.973Z,74.28
2022-12-26T08:26:23.173Z,76.43
2022-12-26T08:28:52.024Z,87.50
2022-12-26T08:31:22.286Z,80.88
2022-12-26T08:33:50.103Z,76.72
2022-12-26T08:36:18.365Z,76.88
2022-12-26T08:38:46.357Z,63.78
2022-12-26T08:41:13.610Z,63.88
2022-12-26T08:46:28.415Z,59.45
2022-12-26T08:48:55.926Z,61.20
2022-12-26T08:51:25.476Z,61.88
2022-12-26T08:53:55.288Z,63.50
2022-12-26T08:56:25.284Z,66.00
2022-12-26T08:58:53.228Z,59.92
2022-12-26T09:01:28.645Z,65.60
2022-12-26T09:06:24.835Z,63.58
2022-12-26T09:08:54.885Z,54.90
2022-12-26T09:11:26.998Z,56.17
2022-12-26T09:13:56.633Z,51.42
2022-12-26T09:16:26.603Z,48.47
2022-12-26T09:18:56.568Z,50.78
2022-12-26T09:21:24.769Z,67.38
2022-12-26T09:23:58.161Z,46.13
2022-12-26T09:26:26.128Z,43.47
2022-12-26T09:28:54.288Z,45.45
2022-12-26T09:31:24.725Z,44.08
2022-12-26T09:33:53.931Z,41.13
2022-12-26T09:36:28.538Z,45.40
2022-12-26T09:38:58.115Z,45.55
2022-12-26T09:41:37.892Z,49.92
2022-12-26T09:44:29.469Z,45.20
2022-12-26T09:47:32.578Z,42.83
2022-12-26T09:50:05.763Z,39.92
2022-12-26T09:52:39.193Z,42.50
2022-12-26T09:55:42.148Z,34.53
2022-12-26T09:58:31.246Z,37.70
2022-12-26T10:01:17.104Z,39.28
2022-12-26T10:03:50.422Z,39.92
2022-12-26T10:06:23.839Z,41.83
2022-12-26T10:09:44.890Z,43.05
2022-12-26T10:12:20.995Z,40.65
2022-12-26T10:15:03.048Z,41.00
2022-12-26T10:17:40.820Z,46.65
2022-12-26T10:20:23.998Z,40.03
2022-12-26T10:23:13.294Z,44.28
2022-12-26T10:25:51.657Z,38.67
2022-12-26T10:28:28.194Z,44.05
2022-12-26T10:30:58.341Z,37.72
2022-12-26T10:33:37.242Z,41.90
2022-12-26T10:36:04.860Z,42.60
2022-12-26T10:38:43.942Z,43.13
2022-12-26T10:41:23.254Z,41.55
2022-12-26T10:43:50.662Z,41.20
2022-12-26T10:46:29.897Z,44.70
2022-12-26T10:48:58.423Z,41.47
2022-12-26T10:51:26.940Z,40.53
2022-12-26T10:53:55.060Z,46.33
2022-12-26T10:56:25.202Z,42.40
2022-12-26T10:59:05.274Z,41.10
2022-12-26T11:01:47.679Z,41.85
2022-12-26T11:04:31.180Z,39.13
2022-12-26T11:07:11.573Z,42.10
2022-12-26T11:09:40.150Z,40.35
2022-12-26T11:12:23.202Z,37.85
2022-12-26T11:14:57.319Z,38.10
2022-12-26T11:17:30.605Z,39.75
2022-12-26T11:20:16.369Z,40.40
2022-12-26T11:22:44.422Z,38.20
2022-12-26T11:25:17.866Z,36.47
2022-12-26T11:27:53.145Z,42.63
2022-12-26T11:30:25.383Z,38.97
2022-12-26T11:33:11.731Z,37.25
2022-12-26T11:35:52.249Z,37.47
2022-12-26T11:38:44.094Z,57.10
2022-12-26T11:41:33.151Z,38.88
2022-12-26T11:44:09.452Z,81.70
2022-12-26T11:46:41.098Z,51.80
2022-12-26T11:49:19.811Z,40.95
2022-12-26T11:51:52.883Z,37.33
2022-12-26T11:54:26.350Z,35.00
2022-12-26T11:57:13.647Z,40.33
2022-12-26T11:59:43.160Z,37.33
2022-12-26T12:02:28.603Z,36.53
2022-12-26T12:05:07.038Z,45.15
2022-12-26T12:07:49.667Z,43.22
2022-12-26T12:10:43.028Z,45.65
2022-12-26T12:13:33.669Z,46.35
2022-12-26T12:16:31.766Z,38.60
2022-12-26T12:19:11.146Z,42.13
2022-12-26T12:21:46.416Z,42.05
2022-12-26T12:24:44.978Z,40.03
2022-12-26T12:27:48.265Z,39.90
2022-12-26T12:30:36.985Z,37.80
2022-12-26T12:33:23.593Z,37.80
2022-12-26T12:36:13.660Z,36.40
2022-12-26T12:39:11.231Z,37.53
2022-12-26T12:41:55.576Z,36.15
2022-12-26T12:44:48.542Z,37.55
2022-12-26T12:47:21.823Z,34.65
2022-12-26T12:50:10.834Z,50.97
2022-12-26T12:52:38.352Z,39.30
2022-12-26T12:55:23.686Z,35.45
2022-12-26T12:58:23.647Z,35.65
2022-12-26T13:00:56.803Z,44.47
2022-12-26T13:03:40.887Z,38.72
2022-12-26T13:06:20.895Z,40.10
2022-12-26T13:09:00.693Z,50.20
2022-12-26T13:11:33.870Z,47.75
2022-12-26T13:14:15.124Z,36.22
2022-12-26T13:16:47.069Z,34.58
2022-12-26T13:19:29.155Z,37.72
2022-12-26T13:22:04.412Z,43.67
2022-12-26T13:24:36.394Z,51.45
2022-12-26T13:27:03.479Z,41.58
2022-12-26T13:29:38.979Z,41.22
2022-12-26T13:32:15.298Z,47.00
2022-12-26T13:34:44.997Z,43.88
2022-12-26T13:37:33.812Z,39.47
2022-12-26T13:40:11.704Z,38.35
2022-12-26T13:43:02.908Z,38.38
2022-12-26T13:45:47.645Z,42.80
2022-12-26T13:48:17.395Z,41.80
2022-12-26T13:50:56.446Z,43.88
2022-12-26T13:53:26.659Z,42.47
2022-12-26T13:55:55.744Z,37.95
2022-12-26T13:58:32.150Z,126.13
2022-12-26T14:01:23.844Z,36.13
2022-12-26T14:04:11.853Z,38.83
2022-12-26T14:06:58.071Z,41.90
2022-12-26T14:09:48.183Z,37.72
2022-12-26T14:12:30.126Z,32.35
2022-12-26T14:15:40.163Z,36.53
2022-12-26T14:18:33.772Z,36.10
2022-12-26T14:21:19.423Z,37.30
2022-12-26T14:23:53.395Z,35.70
2022-12-26T14:26:41.096Z,39.03
2022-12-26T14:29:21.891Z,40.20
2022-12-26T14:31:54.909Z,40.75
2022-12-26T14:34:25.552Z,37.55
2022-12-26T14:37:22.643Z,37.53
2022-12-26T14:40:08.886Z,45.42
2022-12-26T14:43:11.744Z,44.03
2022-12-26T14:45:40.396Z,48.05
2022-12-26T14:48:16.698Z,44.92
2022-12-26T14:50:47.319Z,42.75
2022-12-26T14:53:20.699Z,45.28
2022-12-26T14:55:52.645Z,43.28
2022-12-26T14:58:28.862Z,42.03
2022-12-26T15:01:09.153Z,50.05
2022-12-26T15:04:02.513Z,47.60
2022-12-26T15:07:00.492Z,43.72
2022-12-26T15:10:19.134Z,41.78
2022-12-26T15:12:58.949Z,46.17
2022-12-26T15:15:34.318Z,41.30
2022-12-26T15:18:51.749Z,30.95
2022-12-26T15:21:38.051Z,42.85
2022-12-26T15:24:14.587Z,52.72
2022-12-26T15:26:56.811Z,48.47
2022-12-26T15:30:13.936Z,49.67
2022-12-26T15:32:40.982Z,45.17
2022-12-26T15:35:31.113Z,46.78
2022-12-26T15:38:04.134Z,49.22
2022-12-26T15:40:45.765Z,53.75
2022-12-26T15:43:27.896Z,46.13
2022-12-26T15:46:08.803Z,43.15
2022-12-26T15:48:53.927Z,46.88
2022-12-26T15:51:56.128Z,44.20
2022-12-26T15:54:29.344Z,43.28
2022-12-26T15:57:02.599Z,47.67
2022-12-26T15:59:41.816Z,46.53
2022-12-26T16:02:29.451Z,47.03
2022-12-26T16:05:19.297Z,50.35
2022-12-26T16:07:53.109Z,46.35
2022-12-26T16:10:26.488Z,53.05
2022-12-26T16:13:26.200Z,55.78
2022-12-26T16:15:59.009Z,50.72
2022-12-26T16:18:31.442Z,52.00
2022-12-26T16:21:21.749Z,48.00
2022-12-26T16:23:54.141Z,54.78
2022-12-26T16:26:29.200Z,61.40
2022-12-26T16:29:00.405Z,52.00
2022-12-26T16:31:31.239Z,47.97
2022-12-26T16:34:00.166Z,46.25
2022-12-26T16:36:36.842Z,50.95
2022-12-26T16:39:09.418Z,45.78
2022-12-26T16:41:57.205Z,47.15
2022-12-26T16:44:36.780Z,42.28
2022-12-26T16:47:10.385Z,49.05
2022-12-26T16:49:41.698Z,43.10
2022-12-26T16:52:30.990Z,44.25
2022-12-26T16:54:58.401Z,41.90
2022-12-26T16:57:26.420Z,42.72
2022-12-26T17:00:00.072Z,47.22
2022-12-26T17:02:31.461Z,45.08
2022-12-26T17:05:26.435Z,40.15
2022-12-26T17:07:58.616Z,41.13
2022-12-26T17:10:29.607Z,47.50
2022-12-26T17:13:01.054Z,43.97
2022-12-26T17:15:37.966Z,46.17
2022-12-26T17:18:47.203Z,50.15
2022-12-26T17:21:31.421Z,47.92
2022-12-26T17:24:09.872Z,43.47
2022-12-26T17:26:39.170Z,49.30
2022-12-26T17:29:06.328Z,43.25
2022-12-26T17:31:38.224Z,46.50
2022-12-26T17:34:16.015Z,48.55
2022-12-26T17:37:17.755Z,50.13
2022-12-26T17:39:31.171Z,48.17
2022-12-26T17:42:01.633Z,49.70
2022-12-26T17:44:43.377Z,51.25
2022-12-26T17:47:18.733Z,50.72
2022-12-26T17:49:48.216Z,51.22
2022-12-26T17:52:18.476Z,48.97
2022-12-26T17:54:46.017Z,47.75
2022-12-26T17:57:22.330Z,49.08
2022-12-26T18:02:18.688Z,52.22
2022-12-26T18:04:47.433Z,50.95
2022-12-26T18:07:18.840Z,52.65
2022-12-26T18:09:46.986Z,53.80
2022-12-26T18:12:16.212Z,56.47
2022-12-26T18:14:43.707Z,50.95
2022-12-26T18:17:19.671Z,50.03
2022-12-26T18:19:49.441Z,51.13
2022-12-26T18:22:19.276Z,47.80
2022-12-26T18:24:46.564Z,48.53
2022-12-26T18:27:19.488Z,49.20
2022-12-26T18:29:47.153Z,46.20
2022-12-26T18:32:27.713Z,49.58
2022-12-26T18:34:55.829Z,45.42
2022-12-26T18:37:25.802Z,42.33
2022-12-26T18:39:53.858Z,45.15
2022-12-26T18:42:21.350Z,36.22
2022-12-26T18:44:48.817Z,38.97
2022-12-26T18:47:18.714Z,42.42
2022-12-26T18:49:49.441Z,40.97
2022-12-26T18:52:18.340Z,36.42
2022-12-26T18:54:48.163Z,37.80
2022-12-26T18:57:20.651Z,38.20
2022-12-26T18:59:51.193Z,29.38
2022-12-26T19:02:21.293Z,3.92
2022-12-26T19:04:49.385Z,1.17
2022-12-26T19:07:20.749Z,2.20
2022-12-26T19:09:58.173Z,0.65
2022-12-26T19:12:26.156Z,0.52
2022-12-26T19:14:53.314Z,1.05
2022-12-26T19:17:21.059Z,1.88
2022-12-26T19:19:50.960Z,0.75
2022-12-26T19:22:18.452Z,0.50
2022-12-26T19:24:47.063Z,0.65
2022-12-26T19:27:15.079Z,1.95
2022-12-26T19:29:42.298Z,1.33
2022-12-26T19:32:09.824Z,0.65
2022-12-26T19:34:37.837Z,1.10
2022-12-26T19:37:05.804Z,1.20
2022-12-26T19:39:33.206Z,0.90
2022-12-26T19:42:01.139Z,0.63
2022-12-26T19:44:30.286Z,0.40
2022-12-26T19:47:12.351Z,1.60
2022-12-26T19:49:42.245Z,1.05
2022-12-26T19:52:13.410Z,1.45
2022-12-26T19:54:45.997Z,1.73
2022-12-26T19:57:13.747Z,0.60
2022-12-26T19:59:43.238Z,2.45
2022-12-26T20:02:15.140Z,0.30
2022-12-26T20:04:42.332Z,0.45
2022-12-26T20:07:09.908Z,0.75
2022-12-26T20:09:37.602Z,1.33
2022-12-26T20:12:05.687Z,1.42
2022-12-26T20:14:33.135Z,0.90
2022-12-26T20:17:06.631Z,0.55
2022-12-26T20:19:35.087Z,0.82
2022-12-26T20:22:02.902Z,0.77
2022-12-26T20:24:30.486Z,0.43
2022-12-26T20:26:58.298Z,0.77
2022-12-26T20:29:25.373Z,0.75
2022-12-26T20:31:56.350Z,0.35
2022-12-26T20:34:25.229Z,0.88
2022-12-26T20:36:53.659Z,0.57
2022-12-26T20:39:22.820Z,0.22
2022-12-26T20:41:52.608Z,0.55
2022-12-26T20:44:20.174Z,0.30
2022-12-26T20:46:47.871Z,0.20
2022-12-26T20:49:15.194Z,0.50
2022-12-26T20:51:44.736Z,0.22
2022-12-26T20:54:14.231Z,0.55
2022-12-26T20:56:42.803Z,0.32
2022-12-26T20:59:10.370Z,0.30
2022-12-26T21:01:40.415Z,0.47
2022-12-26T21:04:08.819Z,0.75
2022-12-26T21:06:38.733Z,0.20
2022-12-26T21:09:07.169Z,0.60
2022-12-26T21:11:38.488Z,1.00
2022-12-26T21:14:10.172Z,0.50
2022-12-26T21:16:41.326Z,0.32
2022-12-26T21:19:14.679Z,0.22
2022-12-26T21:21:45.666Z,0.45
2022-12-26T21:24:19.795Z,0.75
2022-12-26T21:26:47.857Z,0.17
2022-12-26T21:29:21.895Z,1.45
2022-12-26T21:31:52.263Z,0.20
2022-12-26T21:34:21.209Z,0.28
2022-12-26T21:37:08.109Z,1.65
2022-12-26T21:39:36.996Z,0.35
2022-12-26T21:42:06.895Z,0.43
2022-12-26T21:44:36.076Z,0.30
2022-12-26T21:47:06.076Z,1.95
2022-12-26T21:49:33.097Z,0.45
2022-12-26T21:52:00.608Z,0.35
2022-12-26T21:54:49.057Z,0.10
2022-12-26T21:57:17.999Z,1.27
2022-12-26T21:59:57.977Z,0.20
2022-12-26T22:02:50.854Z,0.15
2022-12-26T22:05:20.408Z,0.20
2022-12-26T22:07:51.969Z,0.13
2022-12-26T22:10:38.764Z,0.40
2022-12-26T22:13:06.447Z,0.35
2022-12-26T22:15:52.187Z,0.35
2022-12-26T22:18:20.079Z,0.17
2022-12-26T22:20:49.588Z,0.10
2022-12-26T22:23:17.151Z,0.13
2022-12-26T22:25:44.324Z,0.10
2022-12-26T22:28:16.548Z,0.40
2022-12-26T22:30:51.454Z,0.20
2022-12-26T22:33:19.223Z,0.30
2022-12-26T22:35:46.989Z,0.30
2022-12-26T22:38:14.857Z,0.25
2022-12-26T22:40:42.383Z,0.52
2022-12-26T22:43:43.358Z,0.32
2022-12-26T22:46:10.804Z,1.35
2022-12-26T22:48:41.754Z,0.70
2022-12-26T22:51:10.002Z,0.45
2022-12-26T22:53:38.019Z,0.38
2022-12-26T22:56:06.567Z,1.17
2022-12-26T22:58:34.627Z,0.52
2022-12-26T23:01:01.725Z,0.43
2022-12-26T23:03:29.302Z,0.50
2022-12-26T23:05:56.895Z,0.40
2022-12-26T23:08:28.302Z,0.57
2022-12-26T23:10:59.026Z,0.57
2022-12-26T23:13:28.854Z,1.02
2022-12-26T23:15:56.149Z,0.90
2022-12-26T23:18:59.412Z,1.38
2022-12-26T23:21:39.798Z,2.63
2022-12-26T23:24:23.682Z,0.57
2022-12-26T23:26:55.112Z,1.70
2022-12-26T23:29:44.075Z,0.20
2022-12-26T23:32:13.591Z,0.45
2022-12-26T23:34:43.318Z,0.55
2022-12-26T23:37:10.563Z,1.02
2022-12-26T23:39:38.238Z,0.30
2022-12-26T23:42:05.501Z,0.40
2022-12-26T23:44:32.952Z,0.88
2022-12-26T23:47:00.193Z,0.65
2022-12-26T23:49:29.815Z,0.70
2022-12-26T23:51:59.533Z,0.25
2022-12-26T23:54:27.193Z,0.75
2022-12-26T23:56:54.906Z,0.25
2022-12-26T23:59:22.938Z,0.10
